< < Back
Terminal Aerodrome Forecast


Current Version              Previous Versions:   1  2  3  4  5  6  7  8  9  

Terminal Aerodrome Forecast

239
FTUS42 KMLB 052334
TAFDAB
TAF
KDAB 052334Z 0600/0624 25007KT P6SM FEW050 BKN070 BKN250
     FM060600 28004KT P6SM SCT015 BKN050
     FM060900 33008KT P6SM VCSH SCT007 BKN015 OVC035
      TEMPO 0609/0612 5SM BR
     FM061200 36011KT P6SM BKN012 OVC025
     FM061900 01013G20KT P6SM SCT015 BKN025
     FM062100 35017G23KT P6SM BKN010 OVC015=



Latest METAR

789
SAUS80 KWBC 061100
MTRDAB
METAR KDAB 061053Z 01015G19KT 7SM -RA OVC006 15/14 A3019 RMK AO2 SLP222
P0000 T01500139


USA.gov is the U.S. government's official web portal to all federal, state and local government web resources and services.